createdAt,value
2022-12-29T00:00:01.038Z,100050.23
2022-12-29T00:02:06.741Z,100053.23
2022-12-29T00:04:16.440Z,100047.36
2022-12-29T00:06:22.371Z,100051.49
2022-12-29T00:08:27.893Z,100051.93
2022-12-29T00:10:33.166Z,100053.05
2022-12-29T00:12:38.812Z,100044.93
2022-12-29T00:14:43.894Z,100047.58
2022-12-29T00:16:50.272Z,100046
2022-12-29T00:18:56.103Z,100040.47
2022-12-29T00:21:01.351Z,100042.52
2022-12-29T00:23:06.780Z,100046.24
2022-12-29T00:25:12.586Z,100047.86
2022-12-29T00:27:19.419Z,100048.59
2022-12-29T00:29:24.889Z,100050.02
2022-12-29T00:31:30.459Z,100049.2
2022-12-29T00:33:37.133Z,100041.32
2022-12-29T00:35:42.316Z,100052.09
2022-12-29T00:37:47.821Z,100047.61
2022-12-29T00:39:57.079Z,100048.98
2022-12-29T00:42:02.589Z,100049.25
2022-12-29T00:44:08.554Z,100051.47
2022-12-29T00:46:21.073Z,100054.92
2022-12-29T00:48:26.348Z,100051.98
2022-12-29T00:50:31.566Z,100056.53
2022-12-29T00:52:37.126Z,100054.09
2022-12-29T00:54:42.857Z,100054.27
2022-12-29T00:56:48.060Z,100044.52
2022-12-29T00:58:53.546Z,100048.34
2022-12-29T01:00:58.877Z,100045.92
2022-12-29T01:03:04.722Z,100047.72
2022-12-29T01:05:10.219Z,100047.13
2022-12-29T01:07:15.419Z,100047.48
2022-12-29T01:09:22.470Z,100041.92
2022-12-29T01:11:27.559Z,100037.79
2022-12-29T01:13:34.687Z,100036.86
2022-12-29T01:15:40.086Z,100038.99
2022-12-29T01:17:45.581Z,100035.8
2022-12-29T01:19:53.175Z,100027.83
2022-12-29T01:21:58.253Z,100025.31
2022-12-29T01:24:03.358Z,100025.73
2022-12-29T01:26:08.718Z,100013.06
2022-12-29T01:28:14.164Z,100010.56
2022-12-29T01:30:23.819Z,100008.8
2022-12-29T01:32:29.065Z,100005.02
2022-12-29T01:34:35.585Z,99996.48
2022-12-29T01:36:40.855Z,99994.57
2022-12-29T01:38:46.428Z,99996.53
2022-12-29T01:40:51.898Z,99995.12
2022-12-29T01:42:57.013Z,99997.39
2022-12-29T01:45:02.239Z,100000.92
2022-12-29T01:47:07.357Z,100000.4
2022-12-29T01:49:12.582Z,99995.17
2022-12-29T01:51:19.359Z,99993.59
2022-12-29T01:53:24.627Z,99987.23
2022-12-29T01:55:30.025Z,99984.7
2022-12-29T01:57:36.367Z,99975.26
2022-12-29T01:59:42.099Z,99975.75
2022-12-29T02:01:48.039Z,99972.61
2022-12-29T02:03:53.812Z,99971.98
2022-12-29T02:05:58.951Z,99973.92
2022-12-29T02:08:04.225Z,99975.05
2022-12-29T02:10:09.454Z,99968.75
2022-12-29T02:12:14.930Z,99967.11
2022-12-29T02:14:22.367Z,99969.8
2022-12-29T02:16:27.846Z,99965.53
2022-12-29T02:18:34.087Z,99963.2
2022-12-29T02:20:39.604Z,99956.23
2022-12-29T02:22:45.086Z,99951.48
2022-12-29T02:24:49.976Z,99947.09
2022-12-29T02:26:55.299Z,99969.44
2022-12-29T02:29:00.945Z,99967.99
2022-12-29T02:31:06.451Z,99976.63
2022-12-29T02:33:12.694Z,99969.36
2022-12-29T02:35:19.665Z,99966.13
2022-12-29T02:37:24.987Z,99966.98
2022-12-29T02:39:30.551Z,99967.72
2022-12-29T02:41:36.094Z,99966.63
2022-12-29T02:43:41.296Z,99969.72
2022-12-29T02:45:46.713Z,99970.23
2022-12-29T02:47:51.835Z,99973.19
2022-12-29T02:49:56.969Z,99975.64
2022-12-29T02:52:02.112Z,99982.91
2022-12-29T02:54:07.235Z,99979.55
2022-12-29T02:56:12.737Z,99984.95
2022-12-29T02:58:18.704Z,99984.13
2022-12-29T03:00:27.093Z,99982.61
2022-12-29T03:02:32.568Z,99990.48
2022-12-29T03:04:38.819Z,99992.83
2022-12-29T03:06:44.332Z,99991.23
2022-12-29T03:08:50.739Z,99985.79
2022-12-29T03:10:56.061Z,99988.95
2022-12-29T03:13:01.569Z,99985.17
2022-12-29T03:15:06.993Z,99984.12
2022-12-29T03:17:13.043Z,99987.57
2022-12-29T03:19:19.828Z,99983.56
2022-12-29T03:21:28.082Z,99991.27
2022-12-29T03:23:33.157Z,99991.08
2022-12-29T03:25:38.875Z,99993.61
2022-12-29T03:27:44.301Z,99993.5
2022-12-29T03:29:49.655Z,99987.57
2022-12-29T03:31:54.971Z,99989.33
2022-12-29T03:34:00.469Z,99984.75
2022-12-29T03:36:05.911Z,99978.3
2022-12-29T03:38:11.399Z,99966.71
2022-12-29T03:40:19.419Z,99969.49
2022-12-29T03:42:24.582Z,99965.77
2022-12-29T03:44:29.811Z,99958.2
2022-12-29T03:46:35.509Z,99948.88
2022-12-29T03:48:41.228Z,99940.17
2022-12-29T03:50:46.474Z,99937.96
2022-12-29T03:52:51.641Z,99941.48
2022-12-29T03:54:57.063Z,99947.17
2022-12-29T03:57:02.477Z,99944.06
2022-12-29T03:59:08.993Z,99934.54
2022-12-29T04:01:15.611Z,99923.57
2022-12-29T04:03:23.805Z,99925.54
2022-12-29T04:05:30.387Z,99922.27
2022-12-29T04:07:35.889Z,99922.84
2022-12-29T04:09:41.201Z,99919.33
2022-12-29T04:11:46.842Z,99915.52
2022-12-29T04:13:52.335Z,99921.95
2022-12-29T04:15:57.774Z,99921.9
2022-12-29T04:18:03.326Z,99929.47
2022-12-29T04:20:08.921Z,99925.95
2022-12-29T04:22:14.390Z,99929.02
2022-12-29T04:24:21.599Z,99921
2022-12-29T04:26:26.853Z,99916.42
2022-12-29T04:28:37.632Z,99911.63
2022-12-29T04:30:43.135Z,99916.7
2022-12-29T04:32:48.637Z,99913.59
2022-12-29T04:34:53.734Z,99909.49
2022-12-29T04:36:58.990Z,99907.33
2022-12-29T04:39:04.150Z,99913.02
2022-12-29T04:41:10.622Z,99896.86
2022-12-29T04:43:15.930Z,99894.23
2022-12-29T04:45:22.546Z,99902.09
2022-12-29T04:47:30.141Z,99899.72
2022-12-29T04:49:35.378Z,99891.9
2022-12-29T04:51:40.557Z,99890.99
2022-12-29T04:53:45.636Z,99891.5
2022-12-29T04:55:50.698Z,99885.89
2022-12-29T04:57:55.868Z,99893.13
2022-12-29T05:00:01.008Z,99890.46
2022-12-29T05:02:06.877Z,99880.4
2022-12-29T05:04:13.304Z,99879.53
2022-12-29T05:06:19.772Z,99873.6
2022-12-29T05:08:29.585Z,99866.21
2022-12-29T05:10:34.833Z,99866.78
2022-12-29T05:12:40.120Z,99866.44
2022-12-29T05:14:45.744Z,99863.16
2022-12-29T05:16:50.871Z,99863.73
2022-12-29T05:18:56.094Z,99862.55
2022-12-29T05:21:01.448Z,99868.73
2022-12-29T05:23:06.498Z,99869.88
2022-12-29T05:25:11.785Z,99873.77
2022-12-29T05:27:18.813Z,99855.77
2022-12-29T05:29:25.342Z,99856.67
2022-12-29T05:31:30.865Z,99853.64
2022-12-29T05:33:36.964Z,99847.19
2022-12-29T05:35:42.114Z,99846.8
2022-12-29T05:37:47.450Z,99844.41
2022-12-29T05:39:52.756Z,99836.38
2022-12-29T05:41:59.421Z,99836.33
2022-12-29T05:44:04.708Z,99828.75
2022-12-29T05:46:09.780Z,99825.23
2022-12-29T05:48:15.125Z,99832.47
2022-12-29T05:50:20.214Z,99827.97
2022-12-29T05:52:25.527Z,99828.8
2022-12-29T05:54:30.632Z,99823.92
2022-12-29T05:56:36.334Z,99824.84
2022-12-29T05:58:41.414Z,99825.84
2022-12-29T06:00:46.828Z,99823.03
2022-12-29T06:02:52.374Z,99829.12
2022-12-29T06:04:58.775Z,99827.07
2022-12-29T06:07:04.856Z,99818.95
2022-12-29T06:09:10.144Z,99826.67
2022-12-29T06:11:15.437Z,99824.01
2022-12-29T06:13:21.435Z,99822.67
2022-12-29T06:15:26.535Z,99819.17
2022-12-29T06:17:31.727Z,99823.91
2022-12-29T06:19:36.947Z,99818.28
2022-12-29T06:21:42.567Z,99816.63
2022-12-29T06:23:47.750Z,99816.6
2022-12-29T06:25:52.953Z,99815.53
2022-12-29T06:27:58.266Z,99819.55
2022-12-29T06:30:03.732Z,99828.65
2022-12-29T06:32:09.479Z,99827.27
2022-12-29T06:34:14.899Z,99827.38
2022-12-29T06:36:20.276Z,99826.25
2022-12-29T06:38:30.199Z,99815.27
2022-12-29T06:40:35.406Z,99817.78
2022-12-29T06:42:40.813Z,99821.23
2022-12-29T06:44:46.280Z,99825.11
2022-12-29T06:46:51.474Z,99835.73
2022-12-29T06:48:56.975Z,99829.42
2022-12-29T06:51:02.473Z,99835.92
2022-12-29T06:53:07.885Z,99833.24
2022-12-29T06:55:13.120Z,99828.84
2022-12-29T06:57:18.638Z,99822.7
2022-12-29T06:59:23.949Z,99818.84
2022-12-29T07:01:29.797Z,99821.66
2022-12-29T07:03:35.868Z,99820.52
2022-12-29T07:05:41.520Z,99813.33
2022-12-29T07:07:46.951Z,99812.78
2022-12-29T07:09:53.490Z,99816.17
2022-12-29T07:11:59.410Z,99813.2
2022-12-29T07:14:05.093Z,99813.73
2022-12-29T07:16:10.263Z,99815.7
2022-12-29T07:18:15.650Z,99815.06
2022-12-29T07:20:41.920Z,99813.01
2022-12-29T07:22:47.333Z,99808.8
2022-12-29T07:24:52.894Z,99810.61
2022-12-29T07:26:58.488Z,99804.98
2022-12-29T07:29:03.908Z,99803.66
2022-12-29T07:31:09.551Z,99802.25
2022-12-29T07:33:15.415Z,99807.71
2022-12-29T07:35:21.920Z,99812.09
2022-12-29T07:37:26.884Z,99814.75
2022-12-29T07:39:32.209Z,99813.43
2022-12-29T07:41:37.913Z,99816.78
2022-12-29T07:43:43.518Z,99816.1
2022-12-29T07:45:49.213Z,99820.41
2022-12-29T07:47:55.346Z,99826.71
2022-12-29T07:50:03.003Z,99827.8
2022-12-29T07:52:09.050Z,99822.28
2022-12-29T07:54:14.733Z,99818.63
2022-12-29T07:56:23.353Z,99819.45
2022-12-29T07:58:29.697Z,99806.07
2022-12-29T08:00:35.359Z,99808.88
2022-12-29T08:02:41.136Z,99807.38
2022-12-29T08:04:53.918Z,99807.26
2022-12-29T08:07:08.415Z,99801.94
2022-12-29T08:09:25.489Z,99796.89
2022-12-29T08:11:37.730Z,99794.7
2022-12-29T08:13:47.803Z,99796.88
2022-12-29T08:15:53.815Z,99799.23
2022-12-29T08:18:00.153Z,99792.68
2022-12-29T08:20:09.214Z,99800.55
2022-12-29T08:22:19.142Z,99794.33
2022-12-29T08:24:28.377Z,99789.63
2022-12-29T08:26:41.290Z,99788.81
2022-12-29T08:28:51.703Z,99795.81
2022-12-29T08:31:00.224Z,99793.84
2022-12-29T08:33:09.490Z,99790.2
2022-12-29T08:35:20.371Z,99802.91
2022-12-29T08:37:32.136Z,99800.9
2022-12-29T08:39:37.685Z,99803.62
2022-12-29T08:41:45.892Z,99803.97
2022-12-29T08:43:51.592Z,99816.09
2022-12-29T08:48:59.387Z,99812.41
2022-12-29T08:51:05.585Z,99816.02
2022-12-29T08:53:28.633Z,99811.19
2022-12-29T08:55:34.474Z,99814.48
2022-12-29T08:57:45.824Z,99803.41
2022-12-29T08:59:51.707Z,99805.16
2022-12-29T09:02:06.193Z,99807.08
2022-12-29T09:04:18.552Z,99809.36
2022-12-29T09:06:27.949Z,99808.7
2022-12-29T09:08:45.462Z,99804.89
2022-12-29T09:10:50.659Z,99804.38
2022-12-29T09:12:56.378Z,99808.36
2022-12-29T09:15:05.980Z,99813.69
2022-12-29T09:17:12.207Z,99811.2
2022-12-29T09:19:28.313Z,99805.05
2022-12-29T09:21:36.464Z,99803.55
2022-12-29T09:23:45.175Z,99796.03
2022-12-29T09:25:58.606Z,99794.06
2022-12-29T09:28:04.550Z,99795.41
2022-12-29T09:30:10.697Z,99800.62
2022-12-29T09:32:21.960Z,99792.14
2022-12-29T09:34:37.157Z,99791.69
2022-12-29T09:36:49.286Z,99790.2
2022-12-29T09:38:58.203Z,99793.08
2022-12-29T09:41:14.597Z,99791.2
2022-12-29T09:43:41.419Z,99781.48
2022-12-29T09:45:48.819Z,99781.75
2022-12-29T09:47:55.568Z,99775.17
2022-12-29T09:50:06.679Z,99774.84
2022-12-29T09:52:12.679Z,99779.81
2022-12-29T09:54:19.803Z,99777.41
2022-12-29T09:56:28.857Z,99775.14
2022-12-29T09:58:41.094Z,99772.41
2022-12-29T10:01:00.103Z,99770.52
2022-12-29T10:03:11.882Z,99757.98
2022-12-29T10:05:23.750Z,99755.34
2022-12-29T10:07:39.970Z,99765.7
2022-12-29T10:09:45.193Z,99770.64
2022-12-29T10:11:50.982Z,99761.66
2022-12-29T10:13:57.790Z,99760.03
2022-12-29T10:16:19.783Z,99748.94
2022-12-29T10:18:27.810Z,99756.03
2022-12-29T10:20:35.619Z,99752.09
2022-12-29T10:22:56.306Z,99743.61
2022-12-29T10:25:03.323Z,99738.02
2022-12-29T10:27:15.138Z,99744.36
2022-12-29T10:29:21.282Z,99740.81
2022-12-29T10:34:41.225Z,99743.02
2022-12-29T10:36:47.672Z,99743.52
2022-12-29T10:38:53.676Z,99732.06
2022-12-29T10:41:13.794Z,99734.54
2022-12-29T10:43:22.725Z,99729.84
2022-12-29T10:45:28.953Z,99728.19
2022-12-29T10:47:35.229Z,99718.33
2022-12-29T10:49:43.142Z,99717.91
2022-12-29T10:51:51.639Z,99715.77
2022-12-29T10:53:59.506Z,99719.98
2022-12-29T10:56:06.271Z,99717.66
2022-12-29T10:58:49.935Z,99717.34
2022-12-29T11:01:00.622Z,99717.65
2022-12-29T11:03:21.500Z,99712.98
2022-12-29T11:05:42.161Z,99723.11
2022-12-29T11:07:56.350Z,99723.84
2022-12-29T11:10:06.699Z,99727.47
2022-12-29T11:12:21.692Z,99721.78
2022-12-29T11:14:35.910Z,99718.16
2022-12-29T11:16:47.554Z,99727.97
2022-12-29T11:18:53.130Z,99726.06
2022-12-29T11:21:03.613Z,99718.14
2022-12-29T11:23:09.622Z,99719.21
2022-12-29T11:25:24.540Z,99724.07
2022-12-29T11:27:29.638Z,99720.61
2022-12-29T11:29:34.897Z,99716.55
2022-12-29T11:31:40.160Z,99713.93
2022-12-29T11:33:45.655Z,99710.95
2022-12-29T11:35:51.926Z,99708.4
2022-12-29T11:38:12.914Z,99705.56
2022-12-29T11:40:48.252Z,99704.82
2022-12-29T11:43:03.860Z,99704.82
2022-12-29T11:45:12.426Z,99706.45
2022-12-29T11:47:20.332Z,99710.56
2022-12-29T11:49:29.544Z,99706.99
2022-12-29T11:54:40.993Z,99718.47
2022-12-29T11:56:50.533Z,99713.24
2022-12-29T11:58:57.799Z,99709.86
2022-12-29T12:01:04.256Z,99708.05
2022-12-29T12:03:10.771Z,99708.13
2022-12-29T12:05:18.490Z,99703.2
2022-12-29T12:07:23.887Z,99707.88
2022-12-29T12:09:29.156Z,99705.41
2022-12-29T12:11:34.829Z,99703.67
2022-12-29T12:13:40.476Z,99698.86
2022-12-29T12:15:54.409Z,99698.56
2022-12-29T12:21:11.589Z,99696.97
2022-12-29T12:23:16.885Z,99699.04
2022-12-29T12:25:21.961Z,99695.07
2022-12-29T12:27:29.398Z,99695.48
2022-12-29T12:29:36.697Z,99694.36
2022-12-29T12:31:44.376Z,99688.97
2022-12-29T12:33:50.178Z,99691.02
2022-12-29T12:35:56.312Z,99687.71
2022-12-29T12:38:01.824Z,99690.87
2022-12-29T12:40:07.654Z,99685.7
2022-12-29T12:42:13.227Z,99686.64
2022-12-29T12:44:19.129Z,99691.53
2022-12-29T12:46:25.116Z,99692.41
2022-12-29T12:48:30.719Z,99682.72
2022-12-29T12:50:40.218Z,99684.66
2022-12-29T12:52:47.030Z,99676.09
2022-12-29T12:54:52.343Z,99671.48
2022-12-29T12:56:57.950Z,99661.1
2022-12-29T12:59:11.040Z,99658.86
2022-12-29T13:01:16.789Z,99658.28
2022-12-29T13:03:23.421Z,99659.22
2022-12-29T13:08:24.938Z,99648.88
2022-12-29T13:10:31.103Z,99656.09
2022-12-29T13:12:37.319Z,99659.38
2022-12-29T13:14:43.402Z,99673.58
2022-12-29T13:16:48.998Z,99674.66
2022-12-29T13:18:54.988Z,99678.6
2022-12-29T13:24:23.645Z,99678.84
2022-12-29T13:26:30.419Z,99683.61
2022-12-29T13:28:36.306Z,99684.29
2022-12-29T13:30:55.670Z,99684.89
2022-12-29T13:33:01.765Z,99682.06
2022-12-29T13:35:07.024Z,99682.13
2022-12-29T13:37:12.323Z,99683.83
2022-12-29T13:39:22.458Z,99689.72
2022-12-29T13:41:28.339Z,99692.53
2022-12-29T13:43:34.391Z,99691.27
2022-12-29T13:45:40.168Z,99683.86
2022-12-29T13:48:05.924Z,99682.47
2022-12-29T13:56:58.350Z,99677.87
2022-12-29T13:59:04.201Z,99684.55
2022-12-29T14:01:09.803Z,99682.55
2022-12-29T14:10:24.008Z,99691.38
2022-12-29T14:12:31.937Z,99693.23
2022-12-29T14:14:37.211Z,99690.53
2022-12-29T14:16:43.065Z,99690.61
2022-12-29T14:18:48.442Z,99694.08
2022-12-29T14:20:55.590Z,99694.42
2022-12-29T14:23:01.923Z,99691.79
2022-12-29T14:25:07.480Z,99695.91
2022-12-29T14:27:13.370Z,99693.42
2022-12-29T14:29:19.127Z,99694.23
2022-12-29T14:31:25.746Z,99688.52
2022-12-29T14:33:32.328Z,99687.52
2022-12-29T14:35:38.753Z,99688.32
2022-12-29T14:37:45.194Z,99685.93
2022-12-29T14:39:51.029Z,99685.27
2022-12-29T14:41:56.815Z,99682.89
2022-12-29T14:44:02.147Z,99683.66
2022-12-29T14:46:07.848Z,99687.56
2022-12-29T14:48:13.174Z,99689.09
2022-12-29T14:50:18.698Z,99682.64
2022-12-29T14:52:24.339Z,99685.8
2022-12-29T14:54:31.628Z,99689.38
2022-12-29T14:56:37.990Z,99684.07
2022-12-29T14:58:43.954Z,99687.73
2022-12-29T15:00:49.895Z,99690.63
2022-12-29T15:02:56.203Z,99689.34
2022-12-29T15:05:01.961Z,99699.8
2022-12-29T15:07:08.085Z,99705.09
2022-12-29T15:09:16.512Z,99704.6
2022-12-29T15:11:22.473Z,99704.06
2022-12-29T15:13:27.606Z,99705.84
2022-12-29T15:15:33.552Z,99708.39
2022-12-29T15:17:39.714Z,99705.53
2022-12-29T15:19:45.912Z,99704.75
2022-12-29T15:21:51.561Z,99694.81
2022-12-29T15:23:57.788Z,99704.02
2022-12-29T15:26:03.950Z,99693.38
2022-12-29T15:28:10.163Z,99696.84
2022-12-29T15:30:19.429Z,99692.86
2022-12-29T15:32:24.786Z,99691.82
2022-12-29T15:34:30.949Z,99695.73
2022-12-29T15:36:37.540Z,99689.15
2022-12-29T15:38:43.485Z,99686.7
2022-12-29T15:40:48.967Z,99682.86
2022-12-29T15:42:57.598Z,99680.2
2022-12-29T15:45:12.206Z,99674.98
2022-12-29T15:47:18.361Z,99685.92
2022-12-29T15:49:32.549Z,99696.75
2022-12-29T15:51:38.493Z,99693.24
2022-12-29T15:53:43.833Z,99688.31
2022-12-29T15:55:51.055Z,99691
2022-12-29T15:58:01.290Z,99690.77
2022-12-29T16:00:06.853Z,99693.66
2022-12-29T16:02:14.223Z,99696.16
2022-12-29T16:04:20.670Z,99690.95
2022-12-29T16:06:28.074Z,99692.17
2022-12-29T16:08:33.603Z,99686.34
2022-12-29T16:10:39.696Z,99699.06
2022-12-29T16:12:46.672Z,99696.91
2022-12-29T16:14:52.898Z,99702.95
2022-12-29T16:16:59.108Z,99704.03
2022-12-29T16:19:05.341Z,99708.19
2022-12-29T16:21:12.793Z,99705.08
2022-12-29T16:23:18.813Z,99703.7
2022-12-29T16:25:26.633Z,99705.03
2022-12-29T16:27:36.072Z,99707.29
2022-12-29T16:29:42.715Z,99709.69
2022-12-29T16:31:48.954Z,99708.73
2022-12-29T16:33:55.881Z,99705.83
2022-12-29T16:36:01.708Z,99709.54
2022-12-29T16:38:08.106Z,99709.95
2022-12-29T16:40:13.955Z,99710.44
2022-12-29T16:42:20.589Z,99719.5
2022-12-29T16:44:26.178Z,99717.94
2022-12-29T16:46:33.084Z,99718.73
2022-12-29T16:48:39.370Z,99728.13
2022-12-29T16:50:44.480Z,99726.45
2022-12-29T16:52:50.501Z,99719.06
2022-12-29T16:54:56.443Z,99725.33
2022-12-29T16:57:02.015Z,99731.66
2022-12-29T16:59:09.452Z,99735.97
2022-12-29T17:01:15.283Z,99735.16
2022-12-29T17:03:21.115Z,99733.03
2022-12-29T17:05:27.961Z,99726.86
2022-12-29T17:07:37.202Z,99730.34
2022-12-29T17:09:42.754Z,99729.42
2022-12-29T17:12:00.244Z,99726.72
2022-12-29T17:14:16.372Z,99725
2022-12-29T17:16:21.962Z,99723.7
2022-12-29T17:18:27.721Z,99725.59
2022-12-29T17:20:33.168Z,99726.36
2022-12-29T17:22:38.790Z,99721.65
2022-12-29T17:24:48.307Z,99721.64
2022-12-29T17:26:56.900Z,99723.96
2022-12-29T17:29:03.838Z,99728.31
2022-12-29T17:31:10.469Z,99724.29
2022-12-29T17:33:17.069Z,99722.13
2022-12-29T17:35:22.877Z,99720.57
2022-12-29T17:37:28.637Z,99719.92
2022-12-29T17:39:34.412Z,99717.63
2022-12-29T17:41:41.365Z,99717.14
2022-12-29T17:43:47.191Z,99710.95
2022-12-29T17:45:53.326Z,99720.91
2022-12-29T17:48:00.580Z,99719.63
2022-12-29T17:50:08.023Z,99711.68
2022-12-29T17:52:14.450Z,99713.16
2022-12-29T17:54:20.559Z,99714.34
2022-12-29T17:56:26.814Z,99719.61
2022-12-29T17:58:33.112Z,99720.61
2022-12-29T18:00:45.393Z,99725.61
2022-12-29T18:02:54.884Z,99723.64
2022-12-29T18:05:00.843Z,99729.24
2022-12-29T18:07:07.783Z,99727.86
2022-12-29T18:09:13.971Z,99722.91
2022-12-29T18:11:20.141Z,99726.03
2022-12-29T18:13:27.214Z,99726.19
2022-12-29T18:15:49.935Z,99731.96
2022-12-29T18:17:56.039Z,99731.64
2022-12-29T18:20:01.385Z,99740.05
2022-12-29T18:22:06.779Z,99738.47
2022-12-29T18:24:12.464Z,99743.23
2022-12-29T18:26:27.553Z,99740.7
2022-12-29T18:28:34.028Z,99739.11
2022-12-29T18:30:39.463Z,99732.38
2022-12-29T18:32:46.199Z,99736.58
2022-12-29T18:34:53.122Z,99737.75
2022-12-29T18:36:59.270Z,99743.16
2022-12-29T18:39:05.209Z,99741.52
2022-12-29T18:41:12.173Z,99738.47
2022-12-29T18:43:18.197Z,99729.97
2022-12-29T18:45:24.061Z,99729.66
2022-12-29T18:47:30.999Z,99723.4
2022-12-29T18:49:38.049Z,99729.5
2022-12-29T18:51:45.323Z,99731.13
2022-12-29T18:53:51.258Z,99724.78
2022-12-29T18:55:58.339Z,99732.28
2022-12-29T18:58:04.611Z,99720.75
2022-12-29T19:00:10.511Z,99722.16
2022-12-29T19:02:17.262Z,99725.8
2022-12-29T19:04:23.484Z,99725.13
2022-12-29T19:06:29.129Z,99725.58
2022-12-29T19:08:36.648Z,99721.7
2022-12-29T19:10:43.433Z,99720.79
2022-12-29T19:12:49.933Z,99724.23
2022-12-29T19:14:55.719Z,99722.2
2022-12-29T19:17:01.138Z,99721.44
2022-12-29T19:19:11.358Z,99721
2022-12-29T19:21:17.449Z,99720.36
2022-12-29T19:23:23.186Z,99726.1
2022-12-29T19:25:29.271Z,99729.99
2022-12-29T19:27:35.880Z,99724.72
2022-12-29T19:29:43.022Z,99729.25
2022-12-29T19:31:49.171Z,99726.38
2022-12-29T19:33:55.936Z,99728.34
2022-12-29T19:36:03.011Z,99725.03
2022-12-29T19:38:09.803Z,99725.45
2022-12-29T19:40:18.015Z,99731.3
2022-12-29T19:42:27.884Z,99723.11
2022-12-29T19:44:34.918Z,99727.16
2022-12-29T19:46:41.560Z,99728.05
2022-12-29T19:48:47.610Z,99727.06
2022-12-29T19:50:54.315Z,99720.72
2022-12-29T19:53:06.560Z,99723.42
2022-12-29T19:55:13.752Z,99726.39
2022-12-29T19:57:21.046Z,99726.63
2022-12-29T19:59:28.090Z,99727.77
2022-12-29T20:01:34.939Z,99726.05
2022-12-29T20:03:43.232Z,99728.13
2022-12-29T20:05:51.808Z,99731.63
2022-12-29T20:08:00.579Z,99731.57
2022-12-29T20:10:07.833Z,99728.81
2022-12-29T20:12:15.757Z,99725.64
2022-12-29T20:14:27.543Z,99728.2
2022-12-29T20:16:33.831Z,99723.73
2022-12-29T20:19:14.603Z,99729.27
2022-12-29T20:21:20.749Z,99728.69
2022-12-29T20:23:28.034Z,99729.52
2022-12-29T20:25:51.849Z,99726.73
2022-12-29T20:27:59.549Z,99725.18
2022-12-29T20:30:05.792Z,99721.7
2022-12-29T20:32:12.393Z,99722.03
2022-12-29T20:34:18.621Z,99715.36
2022-12-29T20:36:25.051Z,99714
2022-12-29T20:38:32.814Z,99714.5
2022-12-29T20:40:47.711Z,99713.94
2022-12-29T20:42:57.124Z,99717.31
2022-12-29T20:45:03.520Z,99717.33
2022-12-29T20:47:10.229Z,99718.8
2022-12-29T20:49:17.957Z,99727.17
2022-12-29T20:51:24.182Z,99723.37
2022-12-29T20:53:30.124Z,99723.49
2022-12-29T20:55:40.798Z,99725.39
2022-12-29T20:58:25.977Z,99724.8
2022-12-29T21:00:32.480Z,99725.91
2022-12-29T21:02:38.905Z,99727.67
2022-12-29T21:05:25.099Z,99734.64
2022-12-29T21:07:31.812Z,99736.41
2022-12-29T21:09:37.363Z,99737.56
2022-12-29T21:11:43.343Z,99731.86
2022-12-29T21:13:49.893Z,99733.41
2022-12-29T21:15:55.666Z,99731.82
2022-12-29T21:18:03.614Z,99724.02
2022-12-29T21:20:09.978Z,99731.1
2022-12-29T21:22:15.703Z,99731.25
2022-12-29T21:24:22.346Z,99730.77
2022-12-29T21:26:29.356Z,99734.75
2022-12-29T21:28:34.707Z,99736.46
2022-12-29T21:30:40.477Z,99739.71
2022-12-29T21:32:46.091Z,99738.08
2022-12-29T21:34:51.385Z,99743.17
2022-12-29T21:36:56.426Z,99744.34
2022-12-29T21:39:01.815Z,99743.34
2022-12-29T21:41:07.257Z,99745.17
2022-12-29T21:43:12.762Z,99745.91
2022-12-29T21:45:22.348Z,99741.06
2022-12-29T21:47:29.020Z,99738.02
2022-12-29T21:49:34.653Z,99737.84
2022-12-29T21:51:40.442Z,99734.66
2022-12-29T21:53:45.689Z,99737.19
2022-12-29T21:55:51.237Z,99734.57
2022-12-29T21:57:56.551Z,99737.61
2022-12-29T22:00:01.974Z,99737.94
2022-12-29T22:02:08.029Z,99743.53
2022-12-29T22:04:14.457Z,99746.42
2022-12-29T22:06:19.827Z,99742.3
2022-12-29T22:08:25.792Z,99745.11
2022-12-29T22:10:31.193Z,99742.55
2022-12-29T22:12:36.398Z,99746.81
2022-12-29T22:14:41.686Z,99752.27
2022-12-29T22:16:47.505Z,99749.69
2022-12-29T22:18:53.058Z,99753.16
2022-12-29T22:20:58.482Z,99753.33
2022-12-29T22:23:03.745Z,99748.2
2022-12-29T22:25:09.167Z,99750.76
2022-12-29T22:27:14.730Z,99751.43
2022-12-29T22:29:20.408Z,99757.34
2022-12-29T22:31:26.448Z,99756.66
2022-12-29T22:33:33.132Z,99766.08
2022-12-29T22:35:38.407Z,99771.66
2022-12-29T22:37:43.753Z,99773.02
2022-12-29T22:39:49.120Z,99775.36
2022-12-29T22:41:54.553Z,99774.53
2022-12-29T22:44:00.173Z,99775.99
2022-12-29T22:46:05.432Z,99776.77
2022-12-29T22:48:10.909Z,99781.42
2022-12-29T22:50:15.976Z,99787.83
2022-12-29T22:52:21.115Z,99782.05
2022-12-29T22:54:26.530Z,99783.31
2022-12-29T22:56:31.935Z,99773.71
2022-12-29T22:58:37.518Z,99773.25
2022-12-29T23:00:42.919Z,99774.81
2022-12-29T23:02:49.084Z,99774.88
2022-12-29T23:05:10.818Z,99782.01
2022-12-29T23:07:16.401Z,99779.7
2022-12-29T23:09:21.866Z,99781.47
2022-12-29T23:11:27.020Z,99781.96
2022-12-29T23:13:32.650Z,99779.73
2022-12-29T23:15:37.892Z,99781.15
2022-12-29T23:17:43.319Z,99777.88
2022-12-29T23:19:48.577Z,99778.76
2022-12-29T23:21:53.751Z,99786.93
2022-12-29T23:23:59.080Z,99789.07
2022-12-29T23:26:04.704Z,99789.48
2022-12-29T23:28:10.235Z,99790.28
2022-12-29T23:30:15.695Z,99791.03
2022-12-29T23:32:20.964Z,99793.58
2022-12-29T23:34:26.533Z,99800.03
2022-12-29T23:36:31.590Z,99801.17
2022-12-29T23:38:36.684Z,99802.91
2022-12-29T23:40:43.288Z,99801.1
2022-12-29T23:42:48.194Z,99801.01
2022-12-29T23:44:53.451Z,99796.55
2022-12-29T23:46:58.863Z,99795.33
2022-12-29T23:49:04.448Z,99794.51
2022-12-29T23:51:10.329Z,99790.22
2022-12-29T23:53:15.610Z,99791.95
2022-12-29T23:55:21.131Z,99794.97
2022-12-29T23:57:26.378Z,99791.58
2022-12-29T23:59:31.925Z,99793.08
